Keumyang Family — DSNO8 — position and weather

sailwx.info

Track history (hours):
 
Tides and Currents Weather Stations Pressure Air Temp Water Temp Dewpoint Dewpoint Depression Visibility Wind Speed Wind Dir Waves Ship Positions

Keumyang Family

Last reported at 2014-Aug-01 07:33 UTC. Time now 2014-Aug-02 02:42 UTC.
Position N 33°58' E 132°42'.

Length 95 m; draft 5.7 m.

Type: Cargo ship. MMSI: 441416000.

Date/timePositionNaut miles runAvg speedWind from/ knotsBaromVisibWave heightAir tempDewpointWater temp
2014-Aug-01 07:33N 33°58' E 132°42'123 8.2
2014-Jul-31 16:33N 34°36' E 135°04'9 8.7
2014-Jul-31 15:33N 34°36' E 135°15'9 8.7
2014-Jul-31 14:34N 34°39' E 135°25'2 0.4
2014-Jul-31 08:23N 34°38' E 135°27'0 0.0
2014-Jul-31 05:11N 34°38' E 135°27'0 0.0
2014-Jul-31 04:29N 34°38' E 135°27'0 0.0
2014-Jul-31 00:18N 34°38' E 135°27'2 2.7
2014-Jul-30 23:33N 34°39' E 135°25'9 9.1
2014-Jul-30 22:33N 34°33' E 135°16'9 9.1
2014-Jul-30 21:33N 34°27' E 135°08'9 8.6
2014-Jul-30 20:32N 34°20' E 135°01'7 7.6
2014-Jul-30 19:33N 34°13' E 134°60'10 9.4
2014-Jul-30 18:32N 34°03' E 135°00'214 7.9
2014-Jul-29 15:17N 34°48' E 139°14'25 8.9
2014-Jul-29 12:30N 35°04' E 139°37'8 8.8
2014-Jul-29 11:32N 35°10' E 139°44'9 8.8
2014-Jul-29 10:33N 35°19' E 139°44'8 8.0
2014-Jul-29 09:33N 35°26' E 139°46'9 8.4
2014-Jul-29 08:32N 35°32' E 139°54'6 5.2
2014-Jul-29 07:29N 35°36' E 139°59'2 2.4
2014-Jul-29 06:33N 35°38' E 139°59'3 2.4
2014-Jul-29 05:29N 35°40' E 139°58'0 0.0
2014-Jul-29 04:23N 35°40' E 139°58'0 0.0
2014-Jul-29 03:32N 35°40' E 139°58'0 0.0
2014-Jul-29 02:29N 35°40' E 139°58'0 0.0
2014-Jul-29 01:29N 35°40' E 139°58'0 0.0
2014-Jul-28 23:32N 35°40' E 139°58'0 0.0
2014-Jul-28 22:26N 35°40' E 139°58'3 3.3
2014-Jul-28 21:33N 35°38' E 139°59'3 2.8
2014-Jul-28 20:32N 35°35' E 139°59'0 0.1
2014-Jul-28 19:29N 35°35' E 139°59'0 0.0
2014-Jul-28 18:23N 35°35' E 139°59'0 0.0
2014-Jul-28 17:32N 35°35' E 139°59'0 0.0
2014-Jul-28 16:32N 35°35' E 139°59'0 0.0
2014-Jul-28 15:29N 35°35' E 139°59'0 0.0
2014-Jul-28 14:29N 35°35' E 139°59'0 0.0
2014-Jul-28 13:29N 35°35' E 139°59'0 0.0
2014-Jul-28 12:14N 35°35' E 139°59'0 0.0
2014-Jul-28 11:26N 35°35' E 139°59'0 0.1
2014-Jul-28 10:29N 35°35' E 139°59'0 0.0
2014-Jul-28 09:29N 35°35' E 139°59'0 0.0
2014-Jul-28 08:29N 35°35' E 139°59'0 0.1
2014-Jul-28 07:34N 35°35' E 139°59'7 7.4
2014-Jul-28 06:33N 35°30' E 139°53'9 8.8
2014-Jul-28 05:33N 35°24' E 139°45'5 5.2
2014-Jul-28 04:32N 35°23' E 139°38'0 0.0
2014-Jul-28 03:29N 35°23' E 139°38'0 0.0
2014-Jul-28 02:32N 35°23' E 139°38'0 0.0
2014-Jul-28 01:32N 35°23' E 139°38'0 0.0
2014-Jul-28 00:32N 35°23' E 139°38'0 0.0
2014-Jul-27 23:32N 35°23' E 139°38'1 1.2
2014-Jul-27 22:32N 35°23' E 139°40'0 0.1
2014-Jul-27 21:32N 35°23' E 139°40'0 0.0
2014-Jul-27 20:32N 35°23' E 139°40'0 0.0
2014-Jul-27 19:32N 35°23' E 139°40'0 0.0
2014-Jul-27 18:32N 35°23' E 139°40'0 0.0
2014-Jul-27 17:32N 35°23' E 139°40'0 0.0
2014-Jul-27 16:32N 35°23' E 139°40'0 0.0
2014-Jul-27 15:32N 35°23' E 139°40'0 0.1
2014-Jul-27 14:32N 35°23' E 139°40'0 0.0
2014-Jul-27 13:32N 35°23' E 139°40'0 0.0
2014-Jul-27 12:32N 35°23' E 139°40'0 0.0
2014-Jul-27 11:32N 35°23' E 139°40'0 0.0
2014-Jul-27 10:32N 35°23' E 139°40'0 0.0
2014-Jul-27 09:32N 35°23' E 139°40'0 0.0
2014-Jul-27 08:32N 35°23' E 139°40'0 0.0
2014-Jul-27 07:32N 35°23' E 139°40'0 0.1
2014-Jul-27 06:32N 35°23' E 139°40'0 0.0
2014-Jul-27 05:32N 35°23' E 139°40'0 0.0
2014-Jul-27 04:32N 35°23' E 139°40'0 0.1
2014-Jul-27 03:32N 35°23' E 139°40'0 0.0
2014-Jul-27 02:32N 35°23' E 139°40'0 0.0
2014-Jul-27 01:32N 35°23' E 139°40'0 0.1
2014-Jul-27 00:29N 35°23' E 139°40'0 0.0
2014-Jul-26 23:32N 35°23' E 139°40'0 0.0
2014-Jul-26 22:32N 35°23' E 139°40'0 0.0
2014-Jul-26 21:29N 35°23' E 139°40'0 0.0
2014-Jul-26 20:32N 35°23' E 139°40'0 0.1
2014-Jul-26 19:32N 35°23' E 139°40'0 0.1
2014-Jul-26 18:32N 35°23' E 139°40'0 0.1
2014-Jul-26 17:34N 35°23' E 139°40'0 0.0
2014-Jul-26 16:33N 35°23' E 139°40'4 4.3
2014-Jul-26 15:33N 35°20' E 139°43'8 8.1
2014-Jul-26 14:33N 35°13' E 139°47'8 8.1
2014-Jul-26 13:33N 35°05' E 139°44'8 8.5
2014-Jul-26 12:33N 34°59' E 139°36'1010.0
2014-Jul-26 11:33N 34°54' E 139°26'224 6.4
2014-Jul-25 00:28N 34°14' E 134°58'16 8.0
2014-Jul-24 22:31N 34°29' E 135°01'7 6.8
2014-Jul-24 21:32N 34°36' E 135°02'6 6.4
2014-Jul-24 20:33N 34°35' E 134°55'  
Track history (hours):
 
Tides and Currents Weather Stations Pressure Air Temp Water Temp Dewpoint Dewpoint Depression Visibility Wind Speed Wind Dir Waves Ship Positions

Keumyang Family

Last reported at 2014-Aug-01 07:33 UTC. Time now 2014-Aug-02 02:42 UTC.
Position N 33°58' E 132°42'.

Length 95 m; draft 5.7 m.

Type: Cargo ship. MMSI: 441416000.

Date/timePositionNaut miles runAvg speedWind from/ knotsBaromVisibWave heightAir tempDewpointWater temp
2014-Aug-01 07:33N 33°58' E 132°42'123 8.2
2014-Jul-31 16:33N 34°36' E 135°04'9 8.7
2014-Jul-31 15:33N 34°36' E 135°15'9 8.7
2014-Jul-31 14:34N 34°39' E 135°25'2 0.4
2014-Jul-31 08:23N 34°38' E 135°27'0 0.0
2014-Jul-31 05:11N 34°38' E 135°27'0 0.0
2014-Jul-31 04:29N 34°38' E 135°27'0 0.0
2014-Jul-31 00:18N 34°38' E 135°27'2 2.7
2014-Jul-30 23:33N 34°39' E 135°25'9 9.1
2014-Jul-30 22:33N 34°33' E 135°16'9 9.1
2014-Jul-30 21:33N 34°27' E 135°08'9 8.6
2014-Jul-30 20:32N 34°20' E 135°01'7 7.6
2014-Jul-30 19:33N 34°13' E 134°60'10 9.4
2014-Jul-30 18:32N 34°03' E 135°00'214 7.9
2014-Jul-29 15:17N 34°48' E 139°14'25 8.9
2014-Jul-29 12:30N 35°04' E 139°37'8 8.8
2014-Jul-29 11:32N 35°10' E 139°44'9 8.8
2014-Jul-29 10:33N 35°19' E 139°44'8 8.0
2014-Jul-29 09:33N 35°26' E 139°46'9 8.4
2014-Jul-29 08:32N 35°32' E 139°54'6 5.2
2014-Jul-29 07:29N 35°36' E 139°59'2 2.4
2014-Jul-29 06:33N 35°38' E 139°59'3 2.4
2014-Jul-29 05:29N 35°40' E 139°58'0 0.0
2014-Jul-29 04:23N 35°40' E 139°58'0 0.0
2014-Jul-29 03:32N 35°40' E 139°58'0 0.0
2014-Jul-29 02:29N 35°40' E 139°58'0 0.0
2014-Jul-29 01:29N 35°40' E 139°58'0 0.0
2014-Jul-28 23:32N 35°40' E 139°58'0 0.0
2014-Jul-28 22:26N 35°40' E 139°58'3 3.3
2014-Jul-28 21:33N 35°38' E 139°59'3 2.8
2014-Jul-28 20:32N 35°35' E 139°59'0 0.1
2014-Jul-28 19:29N 35°35' E 139°59'0 0.0
2014-Jul-28 18:23N 35°35' E 139°59'0 0.0
2014-Jul-28 17:32N 35°35' E 139°59'0 0.0
2014-Jul-28 16:32N 35°35' E 139°59'0 0.0
2014-Jul-28 15:29N 35°35' E 139°59'0 0.0
2014-Jul-28 14:29N 35°35' E 139°59'0 0.0
2014-Jul-28 13:29N 35°35' E 139°59'0 0.0
2014-Jul-28 12:14N 35°35' E 139°59'0 0.0
2014-Jul-28 11:26N 35°35' E 139°59'0 0.1
2014-Jul-28 10:29N 35°35' E 139°59'0 0.0
2014-Jul-28 09:29N 35°35' E 139°59'0 0.0
2014-Jul-28 08:29N 35°35' E 139°59'0 0.1
2014-Jul-28 07:34N 35°35' E 139°59'7 7.4
2014-Jul-28 06:33N 35°30' E 139°53'9 8.8
2014-Jul-28 05:33N 35°24' E 139°45'5 5.2
2014-Jul-28 04:32N 35°23' E 139°38'0 0.0
2014-Jul-28 03:29N 35°23' E 139°38'0 0.0
2014-Jul-28 02:32N 35°23' E 139°38'0 0.0
2014-Jul-28 01:32N 35°23' E 139°38'0 0.0
2014-Jul-28 00:32N 35°23' E 139°38'0 0.0
2014-Jul-27 23:32N 35°23' E 139°38'1 1.2
2014-Jul-27 22:32N 35°23' E 139°40'0 0.1
2014-Jul-27 21:32N 35°23' E 139°40'0 0.0
2014-Jul-27 20:32N 35°23' E 139°40'0 0.0
2014-Jul-27 19:32N 35°23' E 139°40'0 0.0
2014-Jul-27 18:32N 35°23' E 139°40'0 0.0
2014-Jul-27 17:32N 35°23' E 139°40'0 0.0
2014-Jul-27 16:32N 35°23' E 139°40'0 0.0
2014-Jul-27 15:32N 35°23' E 139°40'0 0.1
2014-Jul-27 14:32N 35°23' E 139°40'0 0.0
2014-Jul-27 13:32N 35°23' E 139°40'0 0.0
2014-Jul-27 12:32N 35°23' E 139°40'0 0.0
2014-Jul-27 11:32N 35°23' E 139°40'0 0.0
2014-Jul-27 10:32N 35°23' E 139°40'0 0.0
2014-Jul-27 09:32N 35°23' E 139°40'0 0.0
2014-Jul-27 08:32N 35°23' E 139°40'0 0.0
2014-Jul-27 07:32N 35°23' E 139°40'0 0.1
2014-Jul-27 06:32N 35°23' E 139°40'0 0.0
2014-Jul-27 05:32N 35°23' E 139°40'0 0.0
2014-Jul-27 04:32N 35°23' E 139°40'0 0.1
2014-Jul-27 03:32N 35°23' E 139°40'0 0.0
2014-Jul-27 02:32N 35°23' E 139°40'0 0.0
2014-Jul-27 01:32N 35°23' E 139°40'0 0.1
2014-Jul-27 00:29N 35°23' E 139°40'0 0.0
2014-Jul-26 23:32N 35°23' E 139°40'0 0.0
2014-Jul-26 22:32N 35°23' E 139°40'0 0.0
2014-Jul-26 21:29N 35°23' E 139°40'0 0.0
2014-Jul-26 20:32N 35°23' E 139°40'0 0.1
2014-Jul-26 19:32N 35°23' E 139°40'0 0.1
2014-Jul-26 18:32N 35°23' E 139°40'0 0.1
2014-Jul-26 17:34N 35°23' E 139°40'0 0.0
2014-Jul-26 16:33N 35°23' E 139°40'4 4.3
2014-Jul-26 15:33N 35°20' E 139°43'8 8.1
2014-Jul-26 14:33N 35°13' E 139°47'8 8.1
2014-Jul-26 13:33N 35°05' E 139°44'8 8.5
2014-Jul-26 12:33N 34°59' E 139°36'1010.0
2014-Jul-26 11:33N 34°54' E 139°26'224 6.4
2014-Jul-25 00:28N 34°14' E 134°58'16 8.0
2014-Jul-24 22:31N 34°29' E 135°01'7 6.8
2014-Jul-24 21:32N 34°36' E 135°02'6 6.4
2014-Jul-24 20:33N 34°35' E 134°55'  

Dump ship's entire track history